• Join FlightAware (Why Join?)
  • Login
  • US Flag 
09:01PM EDT


 

Airport Tracker/Info


-or-


 

Live Flight TrackerFlight Track Log ✈ BMBR604 ✈ 03-Apr-2013 ✈ YPJT / JAD - YPJT / JAD

Flight Track Log - Related Links

Times and Time Zones

All times are in EDT time to prevent confusion due to time zone crossing. See the BMBR604 flight status page for this flight to view local times or setup timezone preferences in your user account.

Time Position Orientation Groundspeed Altitude Reporting Facility
EDT Latitude Longitude Course Direction KTS MPH feet Rate Location/Type
01:11AM -31.9955 115.9195 North 1,500  Level Aus ATC (Calculated)
01:14AM -31.9970 115.9190 195° South  Level FlightAware Approximate
01:14AM -31.8883 115.9522 355° North 1,500  Level Aus ATC (Calculated)
01:15AM -31.9977 115.9188 195° South  Level FlightAware Approximate
01:16AM -31.8893 115.9519 195° South  Level FlightAware Approximate
01:16AM -31.8347 115.9685 348° North 1,500  Level Aus ATC (Calculated)
01:16AM -31.8347 115.9685 348° North 1,500 -60 Level Aus ATC (Calculated)
01:17AM -31.7811 115.9848 336° Northwest 1,500 -60 Level Aus ATC (Calculated)
01:18AM -31.7811 115.9848 336° Northwest 1,500 -60 Level Aus ATC (Calculated)
01:20AM -31.7823 115.9845 194° South  Level FlightAware Approximate
01:20AM -31.7275 116.0011 309° West 1,500  Level Aus ATC (Calculated)
01:22AM -31.7287 116.0008 194° South  Level FlightAware Approximate
01:23AM -31.7293 116.0006 194° South  Level FlightAware Approximate
01:24AM -31.7299 116.0004 194° South  Level FlightAware Approximate
01:24AM -31.7811 115.9848 336° Northwest 400  Level Aus ATC (Calculated)
01:24AM -31.8347 115.9685 348° North 400  Level Aus ATC (Calculated)
01:25AM -31.8347 115.9685 348° North 400  Level Aus ATC (Calculated)
01:26AM -31.8883 115.9522 355° North 400  Level Aus ATC (Calculated)
01:27AM -31.9419 115.9359 359° North 400  Level Aus ATC (Calculated)
01:28AM -31.8887 115.9521 319° Northwest  Level Estimated
01:29AM -31.9422 115.9358 197° South  Level FlightAware Approximate
01:29AM -32.0491 115.9031 North 400  Level Aus ATC (Calculated)
01:29AM -32.0491 115.9031 North 400  Level Aus ATC (Calculated)
01:31AM -32.0495 115.9029 201° Southwest  Level FlightAware Approximate
01:32AM -32.0498 115.9028 201° Southwest  Level FlightAware Approximate
01:33AM -32.0500 115.9027 201° Southwest  Level FlightAware Approximate
01:34AM -32.0502 115.9026 201° Southwest  Level FlightAware Approximate
01:35AM -32.0504 115.9025 201° Southwest  Level FlightAware Approximate
01:36AM -32.0507 115.9024 201° Southwest  Level FlightAware Approximate
01:37AM -32.0509 115.9023 201° Southwest  Level FlightAware Approximate
01:38AM -32.0511 115.9022 201° Southwest  Level FlightAware Approximate
01:39AM -32.0514 115.9021 201° Southwest  Level FlightAware Approximate
01:40AM -32.0516 115.9020 201° Southwest  Level FlightAware Approximate
01:41AM -32.0518 115.9019 201° Southwest  Level FlightAware Approximate
01:42AM -32.0520 115.9018 201° Southwest  Level FlightAware Approximate
01:43AM -32.0523 115.9017 201° Southwest  Level FlightAware Approximate
01:44AM -32.0525 115.9016 201° Southwest  Level FlightAware Approximate
01:45AM -32.0527 115.9015 201° Southwest  Level FlightAware Approximate
01:46AM -32.0530 115.9014 319° Northwest  Level Estimated
01:47AM -32.0532 115.9013 319° Northwest  Level Estimated
01:48AM -32.0534 115.9012 319° Northwest  Level Estimated
01:49AM -32.0536 115.9011 319° Northwest  Level Estimated
01:49AM -31.6774 115.9297 319° Northwest 137 158 800  Level Aus ATC (RADAR)
01:50AM -31.6744 115.9013 277° West 146 168 800  Level Aus ATC (RADAR)
01:50AM -31.6729 115.8845 276° West 147 169 800  Level Aus ATC (RADAR)
01:51AM -31.6703 115.8547 276° West 155 178 800 -120 Level Aus ATC (RADAR)
01:52AM -31.6609 115.8090 284° West 155 178 700 -180 Descending Aus ATC (RADAR)
01:52AM -31.6793 115.8003 202° Southwest 152 175 600 -120 Descending Aus ATC (RADAR)
01:53AM -31.6552 115.8017 North 117 135 600  Level Aus ATC (RADAR)
01:54AM -31.6559 115.7949 263° West 149 171 600 180 Level Aus ATC (RADAR)
01:55AM -31.6786 115.7829 204° Southwest 155 178 900 480 Climbing Aus ATC (RADAR)
01:55AM -31.6892 115.7792 196° South 157 181 1,000 240 Climbing Aus ATC (RADAR)
01:55AM -31.7143 115.7688 199° South 162 186 1,100 240 Climbing Aus ATC (RADAR)
01:56AM -31.7587 115.7503 199° South 168 193 1,400 180 Climbing Aus ATC (RADAR)
01:57AM -31.7853 115.7371 203° Southwest 177 204 1,400  Level Aus ATC (RADAR)
02:00AM -31.9458 115.8108 90° East 400 -300 Descending Aus ATC (Calculated)
02:01AM -31.9458 115.8108 162° South 400  Level Aus ATC (Calculated)
02:02AM -31.9460 115.8109 319° Northwest  Level Estimated
02:03AM -31.9462 115.8110 319° Northwest  Level Estimated
02:03AM -32.1027 115.8867 338° Northwest 400  Level Aus ATC (Calculated)
02:04AM -31.9464 115.8111 319° Northwest  Level Estimated
02:04AM -32.0974 115.8812 360° North 100  Level Aus ATC (Calculated)
02:05AM -32.0974 115.8812 319° Northwest  Level FlightAware Approximate
02:06AM -32.0975 115.8811 319° Northwest  Level Estimated
02:07AM -32.0975 115.8811 319° Northwest  Level Estimated
02:08AM -32.0975 115.8811 319° Northwest  Level Estimated
02:09AM -32.0975 115.8811 319° Northwest  Level Estimated
02:10AM -32.0975 115.8811 319° Northwest  Level Estimated
02:11AM -32.0975 115.8811 319° Northwest  Level Estimated
02:12AM -32.0975 115.8811 319° Northwest  Level Estimated
02:13AM -32.0975 115.8811 319° Northwest  Level Estimated
02:14AM -32.0975 115.8811 319° Northwest  Level Estimated
02:15AM -32.0975 115.8811 319° Northwest  Level Estimated
02:16AM -32.0975 115.8811 319° Northwest  Level Estimated
02:17AM -32.0975 115.8811 319° Northwest  Level Estimated
02:18AM -32.0975 115.8811 319° Northwest  Level Estimated
02:19AM -32.0975 115.8811 319° Northwest  Level Estimated
02:20AM -32.0975 115.8811 319° Northwest  Level Estimated
02:21AM -32.0975 115.8811 319° Northwest  Level Estimated
02:22AM -32.0975 115.8811 319° Northwest  Level Estimated
02:23AM -32.0975 115.8811 319° Northwest  Level Estimated
02:24AM -32.0975 115.8811 319° Northwest  Level Estimated